createdAt,value
2018-09-11T00:01:41.977Z,2.37
2018-09-11T00:04:11.575Z,2.40
2018-09-11T00:06:40.644Z,2.40
2018-09-11T00:09:12.070Z,2.43
2018-09-11T00:11:41.828Z,2.30
2018-09-11T00:14:10.937Z,2.33
2018-09-11T00:16:40.076Z,2.60
2018-09-11T00:19:09.160Z,2.50
2018-09-11T00:21:38.204Z,2.10
2018-09-11T00:24:07.400Z,2.37
2018-09-11T00:26:36.594Z,2.13
2018-09-11T00:29:05.660Z,2.17
2018-09-11T00:31:34.888Z,2.00
2018-09-11T00:34:04.086Z,2.40
2018-09-11T00:36:33.332Z,2.27
2018-09-11T00:39:02.349Z,2.62
2018-09-11T00:41:31.392Z,2.60
2018-09-11T00:44:00.546Z,2.20
2018-09-11T00:46:29.697Z,2.30
2018-09-11T00:48:58.925Z,2.50
2018-09-11T00:51:28.277Z,2.50
2018-09-11T00:53:57.320Z,2.33
2018-09-11T00:56:27.251Z,2.00
2018-09-11T00:58:57.324Z,2.20
2018-09-11T01:01:26.371Z,2.17
2018-09-11T01:03:55.421Z,2.60
2018-09-11T01:06:24.556Z,2.30
2018-09-11T01:08:53.688Z,2.08
2018-09-11T01:11:22.787Z,2.80
2018-09-11T01:13:51.896Z,2.05
2018-09-11T01:16:20.987Z,1.70
2018-09-11T01:18:50.081Z,2.42
2018-09-11T01:21:19.187Z,2.20
2018-09-11T01:23:48.312Z,1.92
2018-09-11T01:26:17.304Z,1.63
2018-09-11T01:28:46.509Z,1.92
2018-09-11T01:31:15.796Z,1.57
2018-09-11T01:33:45.065Z,2.37
2018-09-11T01:36:14.230Z,1.83
2018-09-11T01:38:43.412Z,1.67
2018-09-11T01:41:12.564Z,2.20
2018-09-11T01:43:41.719Z,2.10
2018-09-11T01:46:11.341Z,1.92
2018-09-11T01:48:40.756Z,1.87
2018-09-11T01:51:09.924Z,2.00
2018-09-11T01:53:39.032Z,1.70
2018-09-11T01:56:08.045Z,1.90
2018-09-11T01:58:37.146Z,2.47
2018-09-11T02:01:06.215Z,2.33
2018-09-11T02:03:35.359Z,1.90
2018-09-11T02:06:04.392Z,1.90
2018-09-11T02:08:33.576Z,1.63
2018-09-11T02:11:02.801Z,1.97
2018-09-11T02:13:31.848Z,2.10
2018-09-11T02:16:00.897Z,2.10
2018-09-11T02:18:30.322Z,1.70
2018-09-11T02:20:59.439Z,1.90
2018-09-11T02:23:28.573Z,1.70
2018-09-11T02:25:57.723Z,2.00
2018-09-11T02:28:26.793Z,1.90
2018-09-11T02:30:55.891Z,1.42
2018-09-11T02:33:25.037Z,1.50
2018-09-11T02:35:54.175Z,1.80
2018-09-11T02:38:23.223Z,1.80
2018-09-11T02:40:52.280Z,1.75
2018-09-11T02:43:21.417Z,1.73
2018-09-11T02:45:50.668Z,2.00
2018-09-11T02:48:19.759Z,1.67
2018-09-11T02:50:48.892Z,1.73
2018-09-11T02:53:17.935Z,1.80
2018-09-11T02:55:46.991Z,1.73
2018-09-11T02:58:16.511Z,1.77
2018-09-11T03:00:45.621Z,1.67
2018-09-11T03:03:14.811Z,1.60
2018-09-11T03:05:44.168Z,1.83
2018-09-11T03:08:13.280Z,1.80
2018-09-11T03:10:42.404Z,1.60
2018-09-11T03:13:11.541Z,1.70
2018-09-11T03:15:40.592Z,1.77
2018-09-11T03:18:09.806Z,1.80
2018-09-11T03:20:38.992Z,1.40
2018-09-11T03:23:08.108Z,1.70
2018-09-11T03:25:37.565Z,1.40
2018-09-11T03:28:06.748Z,1.40
2018-09-11T03:30:35.809Z,1.27
2018-09-11T03:33:04.932Z,1.67
2018-09-11T03:35:34.033Z,1.67
2018-09-11T03:38:03.192Z,1.33
2018-09-11T03:40:32.679Z,1.40
2018-09-11T03:43:02.756Z,1.20
2018-09-11T03:45:31.827Z,1.33
2018-09-11T03:48:01.457Z,1.40
2018-09-11T03:50:30.592Z,1.50
2018-09-11T03:52:59.709Z,1.40
2018-09-11T03:55:28.822Z,1.33
2018-09-11T03:57:57.910Z,1.43
2018-09-11T04:00:26.974Z,1.37
2018-09-11T04:02:57.049Z,1.30
2018-09-11T04:05:26.252Z,1.33
2018-09-11T04:07:55.330Z,1.60
2018-09-11T04:10:24.479Z,1.37
2018-09-11T04:12:53.664Z,1.40
2018-09-11T04:15:22.817Z,1.33
2018-09-11T04:17:52.132Z,1.22
2018-09-11T04:20:21.350Z,1.82
2018-09-11T04:22:50.827Z,1.47
2018-09-11T04:25:20.153Z,1.30
2018-09-11T04:29:09.661Z,1.20
2018-09-11T04:31:38.921Z,1.40
2018-09-11T04:34:08.216Z,1.20
2018-09-11T04:36:37.405Z,1.67
2018-09-11T04:39:08.600Z,1.40
2018-09-11T04:41:37.796Z,1.40
2018-09-11T04:44:06.932Z,1.40
2018-09-11T04:46:36.141Z,1.37
2018-09-11T04:49:05.491Z,1.40
2018-09-11T04:51:34.652Z,1.23
2018-09-11T04:54:03.901Z,1.23
2018-09-11T04:56:33.159Z,1.23
2018-09-11T04:59:02.276Z,1.10
2018-09-11T05:01:31.452Z,1.40
2018-09-11T05:04:00.712Z,1.33
2018-09-11T05:06:30.391Z,1.37
2018-09-11T05:08:59.606Z,1.37
2018-09-11T05:11:28.819Z,1.40
2018-09-11T05:13:58.781Z,1.40
2018-09-11T05:16:27.987Z,1.60
2018-09-11T05:18:57.168Z,1.57
2018-09-11T05:21:27.764Z,1.55
2018-09-11T05:23:56.877Z,1.33
2018-09-11T05:26:26.470Z,1.30
2018-09-11T05:28:55.747Z,1.37
2018-09-11T05:31:24.966Z,1.20
2018-09-11T05:33:54.123Z,1.27
2018-09-11T05:36:23.250Z,1.40
2018-09-11T05:38:52.509Z,1.40
2018-09-11T05:41:21.743Z,1.30
2018-09-11T05:43:50.918Z,1.20
2018-09-11T05:46:20.158Z,1.60
2018-09-11T05:48:49.256Z,1.40
2018-09-11T05:51:18.591Z,1.40
2018-09-11T05:53:47.875Z,1.25
2018-09-11T05:56:17.282Z,1.47
2018-09-11T05:58:46.614Z,1.27
2018-09-11T06:01:15.832Z,1.20
2018-09-11T06:03:45.248Z,1.20
2018-09-11T06:06:14.843Z,1.17
2018-09-11T06:08:44.295Z,1.30
2018-09-11T06:11:14.007Z,1.37
2018-09-11T06:13:43.141Z,1.05
2018-09-11T06:16:12.730Z,1.30
2018-09-11T06:18:42.117Z,1.17
2018-09-11T06:21:13.320Z,1.10
2018-09-11T06:23:44.043Z,1.45
2018-09-11T06:26:15.181Z,1.00
2018-09-11T06:28:52.732Z,1.10
2018-09-11T06:31:23.030Z,1.20
2018-09-11T06:33:52.465Z,1.13
2018-09-11T06:36:21.937Z,1.03
2018-09-11T06:38:51.639Z,1.35
2018-09-11T06:41:21.828Z,1.40
2018-09-11T06:43:53.475Z,1.07
2018-09-11T06:46:23.117Z,1.00
2018-09-11T06:48:53.094Z,1.13
2018-09-11T06:51:23.543Z,0.90
2018-09-11T06:53:53.270Z,1.30
2018-09-11T06:56:22.959Z,1.00
2018-09-11T06:58:53.731Z,1.30
2018-09-11T07:01:23.934Z,0.97
2018-09-11T07:03:53.623Z,1.13
2018-09-11T07:06:25.427Z,1.00
2018-09-11T07:08:55.366Z,0.93
2018-09-11T07:11:25.358Z,0.90
2018-09-11T07:13:57.817Z,0.95
2018-09-11T07:16:28.170Z,1.05
2018-09-11T07:18:58.137Z,1.00
2018-09-11T07:21:29.578Z,1.10
2018-09-11T07:23:59.305Z,1.07
2018-09-11T07:26:28.814Z,0.97
2018-09-11T07:29:00.825Z,1.10
2018-09-11T07:31:33.600Z,0.90
2018-09-11T07:34:04.517Z,1.00
2018-09-11T07:36:34.341Z,0.97
2018-09-11T07:39:03.798Z,1.10
2018-09-11T07:41:34.036Z,1.03
2018-09-11T07:44:03.527Z,1.07
2018-09-11T07:46:35.963Z,1.03
2018-09-11T07:49:07.565Z,1.17
2018-09-11T07:51:37.245Z,1.20
2018-09-11T07:54:09.461Z,1.13
2018-09-11T07:56:39.425Z,0.97
2018-09-11T07:59:09.820Z,1.10
2018-09-11T08:01:39.434Z,1.10
2018-09-11T08:04:15.704Z,0.90
2018-09-11T08:06:46.621Z,1.10
2018-09-11T08:09:18.071Z,1.17
2018-09-11T08:11:49.215Z,1.27
2018-09-11T08:14:19.244Z,1.20
2018-09-11T08:16:49.735Z,0.90
2018-09-11T08:19:20.185Z,1.20
2018-09-11T08:21:49.897Z,1.40
2018-09-11T08:24:21.041Z,1.03
2018-09-11T08:26:51.298Z,1.40
2018-09-11T08:29:23.689Z,1.20
2018-09-11T08:31:55.392Z,1.27
2018-09-11T08:34:25.735Z,1.20
2018-09-11T08:36:57.862Z,1.50
2018-09-11T08:39:27.488Z,1.00
2018-09-11T08:41:57.294Z,1.27
2018-09-11T08:44:26.341Z,1.23
2018-09-11T08:46:56.075Z,1.00
2018-09-11T08:49:27.549Z,1.20
2018-09-11T08:51:58.522Z,1.30
2018-09-11T08:54:29.145Z,1.40
2018-09-11T08:57:00.887Z,1.20
2018-09-11T08:59:30.484Z,1.40
2018-09-11T09:02:00.761Z,1.30
2018-09-11T09:04:31.011Z,1.60
2018-09-11T09:07:01.608Z,1.27
2018-09-11T09:09:31.022Z,1.17
2018-09-11T09:12:00.443Z,1.43
2018-09-11T09:14:30.994Z,1.40
2018-09-11T09:17:00.715Z,1.50
2018-09-11T09:19:30.391Z,1.60
2018-09-11T09:22:02.519Z,1.20
2018-09-11T09:24:32.108Z,1.70
2018-09-11T09:27:01.547Z,1.67
2018-09-11T09:29:31.026Z,1.20
2018-09-11T09:32:01.493Z,1.20
2018-09-11T09:34:30.801Z,1.40
2018-09-11T09:37:00.476Z,1.47
2018-09-11T09:39:30.398Z,1.47
2018-09-11T09:42:01.519Z,1.80
2018-09-11T09:44:34.953Z,1.82
2018-09-11T09:47:04.432Z,1.30
2018-09-11T09:49:35.087Z,1.80
2018-09-11T09:52:06.635Z,1.60
2018-09-11T09:54:37.283Z,1.60
2018-09-11T09:57:06.688Z,1.57
2018-09-11T09:59:36.174Z,1.63
2018-09-11T10:02:12.515Z,1.87
2018-09-11T10:04:44.096Z,1.60
2018-09-11T10:07:18.893Z,1.57
2018-09-11T10:09:51.592Z,1.70
2018-09-11T10:12:24.449Z,1.50
2018-09-11T10:14:54.321Z,1.70
2018-09-11T10:17:23.927Z,1.80
2018-09-11T10:19:53.275Z,2.07
2018-09-11T10:22:27.179Z,1.82
2018-09-11T10:24:59.956Z,1.60
2018-09-11T10:27:29.885Z,1.57
2018-09-11T10:29:59.903Z,1.83
2018-09-11T10:32:29.800Z,2.00
2018-09-11T10:35:00.958Z,1.73
2018-09-11T10:37:32.277Z,1.87
2018-09-11T10:40:03.097Z,1.85
2018-09-11T10:42:33.191Z,1.60
2018-09-11T10:45:02.589Z,1.37
2018-09-11T10:47:35.038Z,1.63
2018-09-11T10:50:05.653Z,1.93
2018-09-11T10:52:38.418Z,1.57
2018-09-11T10:55:08.156Z,1.73
2018-09-11T10:57:37.744Z,1.60
2018-09-11T11:00:08.108Z,1.82
2018-09-11T11:02:39.853Z,1.87
2018-09-11T11:05:12.495Z,1.60
2018-09-11T11:07:42.168Z,1.60
2018-09-11T11:10:14.664Z,1.77
2018-09-11T11:12:44.052Z,1.97
2018-09-11T11:15:13.852Z,1.97
2018-09-11T11:17:43.837Z,1.90
2018-09-11T11:20:13.292Z,2.15
2018-09-11T11:22:42.783Z,1.75
2018-09-11T11:25:13.260Z,2.10
2018-09-11T11:27:43.451Z,2.10
2018-09-11T11:30:16.992Z,1.90
2018-09-11T11:32:48.308Z,1.90
2018-09-11T11:35:20.814Z,1.71
2018-09-11T11:37:51.674Z,2.08
2018-09-11T11:40:21.761Z,1.80
2018-09-11T11:42:55.371Z,1.77
2018-09-11T11:45:24.805Z,2.02
2018-09-11T11:47:56.270Z,1.80
2018-09-11T11:50:28.835Z,2.00
2018-09-11T11:53:00.427Z,2.00
2018-09-11T11:55:31.067Z,2.00
2018-09-11T11:58:01.145Z,1.90
2018-09-11T12:00:31.203Z,1.73
2018-09-11T12:03:00.657Z,2.00
2018-09-11T12:05:34.585Z,1.60
2018-09-11T12:08:05.731Z,1.83
2018-09-11T12:10:35.872Z,1.82
2018-09-11T12:13:06.854Z,1.60
2018-09-11T12:15:36.917Z,1.83
2018-09-11T12:18:06.835Z,1.60
2018-09-11T12:20:36.989Z,2.07
2018-09-11T12:23:06.880Z,1.80
2018-09-11T12:25:36.301Z,1.67
2018-09-11T12:28:06.629Z,1.87
2018-09-11T12:30:36.566Z,2.00
2018-09-11T12:33:06.175Z,1.73
2018-09-11T12:35:36.747Z,1.80
2018-09-11T12:38:08.750Z,1.93
2018-09-11T12:40:38.220Z,1.52
2018-09-11T12:43:08.541Z,1.50
2018-09-11T12:45:38.440Z,1.72
2018-09-11T12:48:08.822Z,1.50
2018-09-11T12:50:38.138Z,1.70
2018-09-11T12:53:07.727Z,1.73
2018-09-11T12:55:36.984Z,2.00
2018-09-11T12:58:07.639Z,1.87
2018-09-11T13:00:40.068Z,1.80
2018-09-11T13:03:09.748Z,1.63
2018-09-11T13:05:42.872Z,1.77
2018-09-11T13:08:12.456Z,1.87
2018-09-11T13:10:44.854Z,1.70
2018-09-11T13:13:13.992Z,1.80
2018-09-11T13:15:43.821Z,1.80
2018-09-11T13:18:13.561Z,1.93
2018-09-11T13:20:45.859Z,1.80
2018-09-11T13:23:16.273Z,2.00
2018-09-11T13:25:47.049Z,2.13
2018-09-11T13:28:17.883Z,2.00
2018-09-11T13:30:48.672Z,1.87
2018-09-11T13:33:18.935Z,1.77
2018-09-11T13:35:48.384Z,2.00
2018-09-11T13:38:18.932Z,1.90
2018-09-11T13:40:49.053Z,2.22
2018-09-11T13:43:18.708Z,2.30
2018-09-11T13:45:49.246Z,2.17
2018-09-11T13:48:20.063Z,1.98
2018-09-11T13:50:49.586Z,2.13
2018-09-11T13:53:18.715Z,1.97
2018-09-11T13:55:47.844Z,2.20
2018-09-11T13:58:17.053Z,2.17
2018-09-11T14:00:46.406Z,2.07
2018-09-11T14:03:15.792Z,1.90
2018-09-11T14:05:45.001Z,2.17
2018-09-11T14:08:14.398Z,1.95
2018-09-11T14:10:43.959Z,2.00
2018-09-11T14:13:13.523Z,2.27
2018-09-11T14:15:42.966Z,2.00
2018-09-11T14:18:12.132Z,1.83
2018-09-11T14:20:41.305Z,2.40
2018-09-11T14:23:10.512Z,2.10
2018-09-11T14:25:39.953Z,2.10
2018-09-11T14:28:09.269Z,2.27
2018-09-11T14:30:38.373Z,2.47
2018-09-11T14:33:07.493Z,2.70
2018-09-11T14:35:36.716Z,2.20
2018-09-11T14:38:06.303Z,1.90
2018-09-11T14:40:35.762Z,2.00
2018-09-11T14:43:05.061Z,2.05
2018-09-11T14:45:34.230Z,2.40
2018-09-11T14:48:03.403Z,2.37
2018-09-11T14:50:32.826Z,1.97
2018-09-11T14:53:02.164Z,2.00
2018-09-11T14:55:31.337Z,1.98
2018-09-11T14:58:00.662Z,1.90
2018-09-11T15:00:29.939Z,2.08
2018-09-11T15:02:59.186Z,1.97
2018-09-11T15:05:28.371Z,2.57
2018-09-11T15:07:57.603Z,2.00
2018-09-11T15:10:26.729Z,2.12
2018-09-11T15:12:55.877Z,2.00
2018-09-11T15:15:25.026Z,1.87
2018-09-11T15:17:54.222Z,1.80
2018-09-11T15:20:23.418Z,1.70
2018-09-11T15:22:52.658Z,1.50
2018-09-11T15:25:21.787Z,2.17
2018-09-11T15:27:51.008Z,2.00
2018-09-11T15:30:20.121Z,2.37
2018-09-11T15:32:49.313Z,1.62
2018-09-11T15:35:18.532Z,1.83
2018-09-11T15:37:47.856Z,2.10
2018-09-11T15:40:17.120Z,1.80
2018-09-11T15:42:47.561Z,2.00
2018-09-11T15:45:17.082Z,1.77
2018-09-11T15:47:47.409Z,2.10
2018-09-11T15:50:17.209Z,2.00
2018-09-11T15:52:47.697Z,1.90
2018-09-11T15:55:19.240Z,1.83
2018-09-11T15:57:50.392Z,2.00
2018-09-11T16:00:22.181Z,1.77
2018-09-11T16:02:51.769Z,2.00
2018-09-11T16:05:23.699Z,2.20
2018-09-11T16:07:56.806Z,2.40
2018-09-11T16:10:26.389Z,2.12
2018-09-11T16:12:55.997Z,2.10
2018-09-11T16:15:25.628Z,2.00
2018-09-11T16:17:55.145Z,2.00
2018-09-11T16:20:24.684Z,2.30
2018-09-11T16:22:54.106Z,1.90
2018-09-11T16:25:23.590Z,1.90
2018-09-11T16:27:56.037Z,1.77
2018-09-11T16:30:25.412Z,1.70
2018-09-11T16:32:55.122Z,2.33
2018-09-11T16:35:26.858Z,1.90
2018-09-11T16:37:57.202Z,2.30
2018-09-11T16:40:26.723Z,1.80
2018-09-11T16:42:56.709Z,1.90
2018-09-11T16:45:26.589Z,1.97
2018-09-11T16:47:58.182Z,2.07
2018-09-11T16:50:30.242Z,1.77
2018-09-11T16:52:59.552Z,1.90
2018-09-11T16:55:29.051Z,1.80
2018-09-11T16:57:58.940Z,1.67
2018-09-11T17:00:28.553Z,1.83
2018-09-11T17:03:00.095Z,1.60
2018-09-11T17:05:29.678Z,1.73
2018-09-11T17:08:02.792Z,2.10
2018-09-11T17:10:32.784Z,1.43
2018-09-11T17:13:02.709Z,1.57
2018-09-11T17:15:32.532Z,1.60
2018-09-11T17:18:01.861Z,2.10
2018-09-11T17:20:31.515Z,1.75
2018-09-11T17:23:01.371Z,1.87
2018-09-11T17:25:32.989Z,1.37
2018-09-11T17:28:04.439Z,1.77
2018-09-11T17:30:34.409Z,1.60
2018-09-11T17:33:04.605Z,1.57
2018-09-11T17:35:35.402Z,2.07
2018-09-11T17:38:04.638Z,1.57
2018-09-11T17:40:34.335Z,2.00
2018-09-11T17:43:07.266Z,1.67
2018-09-11T17:45:38.711Z,1.97
2018-09-11T17:48:08.280Z,1.97
2018-09-11T17:50:40.627Z,2.00
2018-09-11T17:53:09.949Z,1.77
2018-09-11T17:55:41.194Z,1.75
2018-09-11T17:58:12.357Z,1.90
2018-09-11T18:00:46.153Z,1.60
2018-09-11T18:03:20.691Z,1.50
2018-09-11T18:05:52.488Z,1.50
2018-09-11T18:08:23.155Z,1.80
2018-09-11T18:10:53.624Z,1.77
2018-09-11T18:13:24.815Z,2.08
2018-09-11T18:15:54.794Z,1.52
2018-09-11T18:18:25.319Z,1.77
2018-09-11T18:20:55.884Z,1.67
2018-09-11T18:23:28.250Z,1.53
2018-09-11T18:25:58.708Z,2.10
2018-09-11T18:28:32.995Z,1.80
2018-09-11T18:31:02.996Z,2.03
2018-09-11T18:33:33.732Z,1.60
2018-09-11T18:36:04.229Z,1.87
2018-09-11T18:38:35.987Z,1.93
2018-09-11T18:41:07.799Z,2.00
2018-09-11T18:43:38.151Z,1.77
2018-09-11T18:46:14.355Z,1.70
2018-09-11T18:48:45.392Z,2.17
2018-09-11T18:51:15.133Z,2.22
2018-09-11T18:53:47.362Z,2.55
2018-09-11T18:56:20.875Z,1.87
2018-09-11T18:58:51.904Z,1.70
2018-09-11T19:01:23.336Z,1.92
2018-09-11T19:03:53.602Z,2.00
2018-09-11T19:06:24.655Z,2.55
2018-09-11T19:08:54.936Z,2.60
2018-09-11T19:11:26.302Z,3.10
2018-09-11T19:13:56.660Z,2.40
2018-09-11T19:16:30.289Z,2.65
2018-09-11T19:19:03.309Z,2.33
2018-09-11T19:21:37.593Z,2.33
2018-09-11T19:24:07.885Z,3.10
2018-09-11T19:26:41.411Z,2.42
2018-09-11T19:29:10.933Z,2.30
2018-09-11T19:31:42.673Z,2.42
2018-09-11T19:34:15.513Z,2.10
2018-09-11T19:36:45.865Z,2.50
2018-09-11T19:39:17.481Z,2.57
2018-09-11T19:41:47.069Z,2.00
2018-09-11T19:44:18.115Z,2.40
2018-09-11T19:46:50.428Z,2.63
2018-09-11T19:49:22.194Z,2.40
2018-09-11T19:51:53.876Z,2.43
2018-09-11T19:54:29.958Z,2.23
2018-09-11T19:57:03.100Z,2.00
2018-09-11T19:59:37.604Z,2.37
2018-09-11T20:02:11.713Z,2.53
2018-09-11T20:04:42.128Z,2.37
2018-09-11T20:07:13.432Z,2.30
2018-09-11T20:09:45.695Z,2.50
2018-09-11T20:12:16.216Z,2.03
2018-09-11T20:14:45.464Z,2.30
2018-09-11T20:17:14.906Z,2.27
2018-09-11T20:19:44.143Z,2.73
2018-09-11T20:22:14.711Z,2.53
2018-09-11T20:24:43.834Z,2.70
2018-09-11T20:27:12.922Z,2.30
2018-09-11T20:29:42.441Z,2.17
2018-09-11T20:32:11.710Z,2.20
2018-09-11T20:34:40.935Z,2.20
2018-09-11T20:39:53.993Z,2.10
2018-09-11T20:42:23.353Z,2.07
2018-09-11T20:44:52.742Z,2.13
2018-09-11T20:47:21.952Z,2.10
2018-09-11T20:49:51.115Z,2.25
2018-09-11T20:52:20.164Z,2.05
2018-09-11T20:54:49.309Z,2.30
2018-09-11T20:57:18.473Z,2.63
2018-09-11T20:59:47.634Z,2.53
2018-09-11T21:05:16.885Z,2.37
2018-09-11T21:07:46.281Z,2.05
2018-09-11T21:10:15.521Z,2.12
2018-09-11T21:12:45.441Z,2.43
2018-09-11T21:15:14.574Z,2.40
2018-09-11T21:17:43.680Z,2.30
2018-09-11T21:20:13.018Z,2.27
2018-09-11T21:22:42.412Z,2.10
2018-09-11T21:25:11.822Z,2.93
2018-09-11T21:27:41.039Z,2.33
2018-09-11T21:30:10.273Z,2.43
2018-09-11T21:32:39.402Z,2.20
2018-09-11T21:35:08.641Z,2.30
2018-09-11T21:37:37.780Z,2.30
2018-09-11T21:40:06.916Z,2.20
2018-09-11T21:42:35.977Z,2.45
2018-09-11T21:45:05.232Z,2.23
2018-09-11T21:47:34.361Z,2.53
2018-09-11T21:50:03.540Z,2.33
2018-09-11T21:52:33.724Z,2.55
2018-09-11T21:55:02.756Z,2.90
2018-09-11T21:57:31.832Z,2.27
2018-09-11T22:00:00.975Z,2.40
2018-09-11T22:02:30.107Z,2.40
2018-09-11T22:04:59.153Z,2.67
2018-09-11T22:07:28.328Z,2.20
2018-09-11T22:09:57.360Z,2.17
2018-09-11T22:12:26.625Z,2.30
2018-09-11T22:14:55.760Z,2.17
2018-09-11T22:17:24.925Z,2.47
2018-09-11T22:19:54.131Z,2.47
2018-09-11T22:22:23.437Z,2.40
2018-09-11T22:24:52.616Z,2.80
2018-09-11T22:27:21.728Z,2.30
2018-09-11T22:29:50.899Z,2.50
2018-09-11T22:32:19.960Z,2.30
2018-09-11T22:34:49.182Z,2.53
2018-09-11T22:37:18.289Z,2.37
2018-09-11T22:39:47.426Z,2.30
2018-09-11T22:42:16.744Z,1.90
2018-09-11T22:44:46.324Z,2.17
2018-09-11T22:47:15.603Z,2.15
2018-09-11T22:49:44.806Z,2.13
2018-09-11T22:52:13.977Z,2.00
2018-09-11T22:54:43.124Z,1.97
2018-09-11T22:57:12.385Z,2.33
2018-09-11T22:59:42.240Z,2.23
2018-09-11T23:02:11.829Z,1.90
2018-09-11T23:04:41.466Z,2.10
2018-09-11T23:07:10.714Z,2.30
2018-09-11T23:09:39.808Z,2.55
2018-09-11T23:12:08.951Z,2.53
2018-09-11T23:14:38.121Z,2.17
2018-09-11T23:17:07.264Z,2.57
2018-09-11T23:19:36.469Z,2.27
2018-09-11T23:22:05.770Z,2.25
2018-09-11T23:24:34.834Z,2.10
2018-09-11T23:27:03.928Z,2.13
2018-09-11T23:29:32.996Z,2.50
2018-09-11T23:32:02.091Z,2.27
2018-09-11T23:34:31.298Z,2.27
2018-09-11T23:37:00.532Z,2.07
2018-09-11T23:39:29.890Z,2.33
2018-09-11T23:41:58.959Z,2.30
2018-09-11T23:44:28.017Z,2.30
2018-09-11T23:46:57.153Z,2.30
2018-09-11T23:49:26.211Z,2.50
2018-09-11T23:51:56.320Z,2.62
2018-09-11T23:54:26.397Z,2.30
2018-09-11T23:56:55.512Z,2.67
2018-09-11T23:59:24.596Z,2.63
